sensor_id;sensor_type;location;lat;lon;timestamp;pressure;altitude;pressure_sealevel;temperature;humidity
54314;BME280;50746;52.490;13.320;2023-02-20T00:00:58;101620.0;;;11.3;73.2
54314;BME280;50746;52.490;13.320;2023-02-20T00:01:58;101620.0;;;11.4;74.1
54314;BME280;50746;52.490;13.320;2023-02-20T00:02:58;101610.0;;;11.0;75.2
54314;BME280;50746;52.490;13.320;2023-02-20T00:03:58;101600.0;;;11.2;75.7
54314;BME280;50746;52.490;13.320;2023-02-20T00:04:58;101610.0;;;11.3;75.2
54314;BME280;50746;52.490;13.320;2023-02-20T00:05:58;101600.0;;;11.4;74.8
54314;BME280;50746;52.490;13.320;2023-02-20T00:06:58;101610.0;;;11.5;73.6
54314;BME280;50746;52.490;13.320;2023-02-20T00:07:58;101610.0;;;11.2;74.2
54314;BME280;50746;52.490;13.320;2023-02-20T00:08:58;101610.0;;;10.9;77.2
54314;BME280;50746;52.490;13.320;2023-02-20T00:09:58;101610.0;;;11.2;76.3
54314;BME280;50746;52.490;13.320;2023-02-20T00:11:58;101610.0;;;11.4;75.5
54314;BME280;50746;52.490;13.320;2023-02-20T00:12:58;101610.0;;;11.2;75.9
54314;BME280;50746;52.490;13.320;2023-02-20T00:13:58;101600.0;;;11.4;75.3
54314;BME280;50746;52.490;13.320;2023-02-20T00:14:58;101600.0;;;11.5;74.2
54314;BME280;50746;52.490;13.320;2023-02-20T00:15:58;101590.0;;;11.1;76.3
54314;BME280;50746;52.490;13.320;2023-02-20T00:16:58;101600.0;;;11.3;75.7
54314;BME280;50746;52.490;13.320;2023-02-20T00:17:58;101590.0;;;11.4;74.6
54314;BME280;50746;52.490;13.320;2023-02-20T00:19:58;101600.0;;;11.3;75.0
54314;BME280;50746;52.490;13.320;2023-02-20T00:20:58;101600.0;;;11.5;75.6
54314;BME280;50746;52.490;13.320;2023-02-20T00:21:58;101600.0;;;11.6;74.0
54314;BME280;50746;52.490;13.320;2023-02-20T00:22:58;101600.0;;;11.4;75.3
54314;BME280;50746;52.490;13.320;2023-02-20T00:25:58;101600.0;;;11.5;75.3
54314;BME280;50746;52.490;13.320;2023-02-20T00:26:58;101590.0;;;11.6;74.6
54314;BME280;50746;52.490;13.320;2023-02-20T00:27:58;101590.0;;;11.5;75.4
54314;BME280;50746;52.490;13.320;2023-02-20T00:31:58;101580.0;;;11.2;76.2
54314;BME280;50746;52.490;13.320;2023-02-20T00:32:59;101580.0;;;11.4;75.8
54314;BME280;50746;52.490;13.320;2023-02-20T00:33:58;101570.0;;;11.3;77.5
54314;BME280;50746;52.490;13.320;2023-02-20T00:34:58;101570.0;;;11.4;76.0
54314;BME280;50746;52.490;13.320;2023-02-20T00:35:58;101570.0;;;11.3;76.8
54314;BME280;50746;52.490;13.320;2023-02-20T00:37:58;101580.0;;;11.5;76.1
54314;BME280;50746;52.490;13.320;2023-02-20T00:39:58;101580.0;;;11.4;75.4
54314;BME280;50746;52.490;13.320;2023-02-20T00:40:58;101580.0;;;11.3;76.3
54314;BME280;50746;52.490;13.320;2023-02-20T00:43:58;101570.0;;;11.4;76.7
54314;BME280;50746;52.490;13.320;2023-02-20T00:44:58;101570.0;;;10.9;78.8
54314;BME280;50746;52.490;13.320;2023-02-20T00:45:58;101570.0;;;11.2;79.5
54314;BME280;50746;52.490;13.320;2023-02-20T00:47:58;101570.0;;;11.3;78.3
54314;BME280;50746;52.490;13.320;2023-02-20T00:48:58;101570.0;;;11.1;79.0
54314;BME280;50746;52.490;13.320;2023-02-20T00:49:58;101560.0;;;10.8;82.2
54314;BME280;50746;52.490;13.320;2023-02-20T00:50:58;101560.0;;;11.0;81.4
54314;BME280;50746;52.490;13.320;2023-02-20T00:51:58;101560.0;;;11.1;79.5
54314;BME280;50746;52.490;13.320;2023-02-20T00:52:58;101560.0;;;11.0;81.4
54314;BME280;50746;52.490;13.320;2023-02-20T00:54:58;101560.0;;;11.1;80.4
54314;BME280;50746;52.490;13.320;2023-02-20T00:56:58;101560.0;;;11.3;79.3
54314;BME280;50746;52.490;13.320;2023-02-20T00:57:58;101560.0;;;11.2;79.3
54314;BME280;50746;52.490;13.320;2023-02-20T00:58:58;101560.0;;;11.3;78.8
54314;BME280;50746;52.490;13.320;2023-02-20T00:59:58;101560.0;;;11.4;77.9
54314;BME280;50746;52.490;13.320;2023-02-20T01:01:58;101550.0;;;11.2;78.4
54314;BME280;50746;52.490;13.320;2023-02-20T01:02:58;101550.0;;;11.4;78.5
54314;BME280;50746;52.490;13.320;2023-02-20T01:03:58;101540.0;;;11.6;77.0
54314;BME280;50746;52.490;13.320;2023-02-20T01:04:58;101550.0;;;11.5;76.9
54314;BME280;50746;52.490;13.320;2023-02-20T01:05:58;101540.0;;;11.2;78.0
54314;BME280;50746;52.490;13.320;2023-02-20T01:06:58;101550.0;;;11.3;78.2
54314;BME280;50746;52.490;13.320;2023-02-20T01:08:58;101550.0;;;11.5;77.9
54314;BME280;50746;52.490;13.320;2023-02-20T01:09:58;101550.0;;;11.4;78.2
54314;BME280;50746;52.490;13.320;2023-02-20T01:10:58;101550.0;;;11.5;78.1
54314;BME280;50746;52.490;13.320;2023-02-20T01:11:58;101550.0;;;11.4;77.9
54314;BME280;50746;52.490;13.320;2023-02-20T01:12:58;101550.0;;;11.6;77.2
54314;BME280;50746;52.490;13.320;2023-02-20T01:14:58;101540.0;;;11.5;77.5
54314;BME280;50746;52.490;13.320;2023-02-20T01:15:58;101540.0;;;11.6;77.3
54314;BME280;50746;52.490;13.320;2023-02-20T01:16:58;101540.0;;;11.5;77.5
54314;BME280;50746;52.490;13.320;2023-02-20T01:19:58;101540.0;;;11.6;77.4
54314;BME280;50746;52.490;13.320;2023-02-20T01:20:58;101540.0;;;11.9;76.9
54314;BME280;50746;52.490;13.320;2023-02-20T01:21:58;101530.0;;;11.4;78.4
54314;BME280;50746;52.490;13.320;2023-02-20T01:25:58;101520.0;;;11.6;77.7
54314;BME280;50746;52.490;13.320;2023-02-20T01:26:58;101520.0;;;11.7;77.0
54314;BME280;50746;52.490;13.320;2023-02-20T01:27:58;101520.0;;;11.6;76.7
54314;BME280;50746;52.490;13.320;2023-02-20T01:29:58;101510.0;;;11.7;75.5
54314;BME280;50746;52.490;13.320;2023-02-20T01:30:58;101510.0;;;11.4;77.1
54314;BME280;50746;52.490;13.320;2023-02-20T01:33:58;101510.0;;;11.3;79.6
54314;BME280;50746;52.490;13.320;2023-02-20T01:34:58;101510.0;;;11.2;80.7
54314;BME280;50746;52.490;13.320;2023-02-20T01:35:58;101500.0;;;11.4;80.1
54314;BME280;50746;52.490;13.320;2023-02-20T01:37:58;101500.0;;;11.6;78.5
54314;BME280;50746;52.490;13.320;2023-02-20T01:38:58;101490.0;;;11.8;78.2
54314;BME280;50746;52.490;13.320;2023-02-20T01:42:00;101480.0;;;11.9;77.2
54314;BME280;50746;52.490;13.320;2023-02-20T01:43:58;101480.0;;;11.8;75.6
54314;BME280;50746;52.490;13.320;2023-02-20T01:45:16;101480.0;;;12.0;75.4
54314;BME280;50746;52.490;13.320;2023-02-20T01:47:58;101470.0;;;12.0;75.5
54314;BME280;50746;52.490;13.320;2023-02-20T01:50:01;101470.0;;;12.1;74.3
54314;BME280;50746;52.490;13.320;2023-02-20T01:50:59;101470.0;;;11.7;75.9
54314;BME280;50746;52.490;13.320;2023-02-20T01:52:02;101470.0;;;11.9;75.4
54314;BME280;50746;52.490;13.320;2023-02-20T01:53:02;101470.0;;;12.0;74.7
54314;BME280;50746;52.490;13.320;2023-02-20T01:53:58;101470.0;;;12.1;74.4
54314;BME280;50746;52.490;13.320;2023-02-20T01:56:02;101470.0;;;11.8;74.5
54314;BME280;50746;52.490;13.320;2023-02-20T01:58:02;101470.0;;;11.5;77.5
54314;BME280;50746;52.490;13.320;2023-02-20T01:58:58;101460.0;;;11.6;77.4
54314;BME280;50746;52.490;13.320;2023-02-20T01:59:59;101460.0;;;11.8;76.2
54314;BME280;50746;52.490;13.320;2023-02-20T02:00:59;101450.0;;;11.9;76.3
54314;BME280;50746;52.490;13.320;2023-02-20T02:03:01;101440.0;;;11.8;75.8
54314;BME280;50746;52.490;13.320;2023-02-20T02:04:01;101440.0;;;11.7;76.5
54314;BME280;50746;52.490;13.320;2023-02-20T02:04:58;101430.0;;;11.8;76.5
54314;BME280;50746;52.490;13.320;2023-02-20T02:06:00;101440.0;;;11.9;76.8
54314;BME280;50746;52.490;13.320;2023-02-20T02:06:58;101440.0;;;12.0;75.8
54314;BME280;50746;52.490;13.320;2023-02-20T02:10:01;101430.0;;;11.9;76.6
54314;BME280;50746;52.490;13.320;2023-02-20T02:11:00;101430.0;;;11.7;77.1
54314;BME280;50746;52.490;13.320;2023-02-20T02:11:58;101430.0;;;11.8;77.4
54314;BME280;50746;52.490;13.320;2023-02-20T02:12:58;101420.0;;;11.9;77.5
54314;BME280;50746;52.490;13.320;2023-02-20T02:16:03;101420.0;;;12.0;77.6
54314;BME280;50746;52.490;13.320;2023-02-20T02:17:06;101420.0;;;11.8;77.7
54314;BME280;50746;52.490;13.320;2023-02-20T02:18:09;101420.0;;;11.9;76.8
54314;BME280;50746;52.490;13.320;2023-02-20T02:19:01;101420.0;;;11.5;79.2
54314;BME280;50746;52.490;13.320;2023-02-20T02:20:16;101420.0;;;11.7;79.4
54314;BME280;50746;52.490;13.320;2023-02-20T02:21:08;101410.0;;;11.6;79.5
54314;BME280;50746;52.490;13.320;2023-02-20T02:22:14;101420.0;;;11.5;81.5
54314;BME280;50746;52.490;13.320;2023-02-20T02:24:16;101420.0;;;11.8;81.5
54314;BME280;50746;52.490;13.320;2023-02-20T02:25:12;101430.0;;;11.9;79.5
54314;BME280;50746;52.490;13.320;2023-02-20T02:26:02;101430.0;;;11.3;82.7
54314;BME280;50746;52.490;13.320;2023-02-20T02:27:14;101420.0;;;11.4;86.2
54314;BME280;50746;52.490;13.320;2023-02-20T02:29:11;101420.0;;;11.5;84.6
54314;BME280;50746;52.490;13.320;2023-02-20T02:31:12;101420.0;;;11.4;85.0
54314;BME280;50746;52.490;13.320;2023-02-20T02:33:02;101430.0;;;11.5;84.7
54314;BME280;50746;52.490;13.320;2023-02-20T02:36:17;101420.0;;;11.2;86.4
54314;BME280;50746;52.490;13.320;2023-02-20T02:37:02;101420.0;;;11.3;88.1
54314;BME280;50746;52.490;13.320;2023-02-20T02:38:03;101410.0;;;11.5;86.9
54314;BME280;50746;52.490;13.320;2023-02-20T02:39:01;101410.0;;;11.7;85.5
54314;BME280;50746;52.490;13.320;2023-02-20T02:40:01;101410.0;;;11.6;84.2
54314;BME280;50746;52.490;13.320;2023-02-20T02:41:04;101410.0;;;11.4;85.6
54314;BME280;50746;52.490;13.320;2023-02-20T02:42:03;101410.0;;;11.3;87.4
54314;BME280;50746;52.490;13.320;2023-02-20T02:43:04;101410.0;;;11.7;86.5
54314;BME280;50746;52.490;13.320;2023-02-20T02:44:00;101400.0;;;11.9;82.7
54314;BME280;50746;52.490;13.320;2023-02-20T02:46:00;101390.0;;;12.0;84.0
54314;BME280;50746;52.490;13.320;2023-02-20T02:48:03;101380.0;;;12.1;82.2
54314;BME280;50746;52.490;13.320;2023-02-20T02:49:02;101390.0;;;12.0;81.5
54314;BME280;50746;52.490;13.320;2023-02-20T02:50:01;101390.0;;;11.8;82.1
54314;BME280;50746;52.490;13.320;2023-02-20T02:51:02;101380.0;;;11.9;83.7
54314;BME280;50746;52.490;13.320;2023-02-20T02:51:59;101380.0;;;12.1;82.2
54314;BME280;50746;52.490;13.320;2023-02-20T02:52:58;101380.0;;;11.7;83.6
54314;BME280;50746;52.490;13.320;2023-02-20T02:54:07;101390.0;;;11.9;84.0
54314;BME280;50746;52.490;13.320;2023-02-20T02:54:58;101390.0;;;11.8;84.3
54314;BME280;50746;52.490;13.320;2023-02-20T02:58:58;101380.0;;;11.7;86.4
54314;BME280;50746;52.490;13.320;2023-02-20T03:02:01;101380.0;;;11.9;86.0
54314;BME280;50746;52.490;13.320;2023-02-20T03:04:00;101380.0;;;12.0;85.4
54314;BME280;50746;52.490;13.320;2023-02-20T03:05:00;101370.0;;;11.8;86.8
54314;BME280;50746;52.490;13.320;2023-02-20T03:06:01;101380.0;;;12.2;85.0
54314;BME280;50746;52.490;13.320;2023-02-20T03:07:01;101370.0;;;11.8;87.6
54314;BME280;50746;52.490;13.320;2023-02-20T03:09:00;101380.0;;;11.7;87.7
54314;BME280;50746;52.490;13.320;2023-02-20T03:10:01;101380.0;;;11.9;87.7
54314;BME280;50746;52.490;13.320;2023-02-20T03:11:00;101380.0;;;12.1;86.1
54314;BME280;50746;52.490;13.320;2023-02-20T03:13:04;101370.0;;;12.5;83.8
54314;BME280;50746;52.490;13.320;2023-02-20T03:14:01;101360.0;;;11.9;84.8
54314;BME280;50746;52.490;13.320;2023-02-20T03:15:02;101360.0;;;12.0;87.1
54314;BME280;50746;52.490;13.320;2023-02-20T03:16:00;101360.0;;;11.9;88.8
54314;BME280;50746;52.490;13.320;2023-02-20T03:17:04;101360.0;;;12.0;87.9
54314;BME280;50746;52.490;13.320;2023-02-20T03:18:02;101360.0;;;11.8;88.4
54314;BME280;50746;52.490;13.320;2023-02-20T03:19:00;101360.0;;;11.7;89.9
54314;BME280;50746;52.490;13.320;2023-02-20T03:20:01;101350.0;;;11.8;90.9
54314;BME280;50746;52.490;13.320;2023-02-20T03:21:02;101350.0;;;12.0;88.9
54314;BME280;50746;52.490;13.320;2023-02-20T03:22:01;101350.0;;;11.8;88.8
54314;BME280;50746;52.490;13.320;2023-02-20T03:22:59;101350.0;;;12.2;88.2
54314;BME280;50746;52.490;13.320;2023-02-20T03:24:00;101350.0;;;12.0;87.9
54314;BME280;50746;52.490;13.320;2023-02-20T03:25:02;101350.0;;;12.1;88.2
54314;BME280;50746;52.490;13.320;2023-02-20T03:26:02;101350.0;;;12.2;87.9
54314;BME280;50746;52.490;13.320;2023-02-20T03:26:58;101350.0;;;12.4;87.4
54314;BME280;50746;52.490;13.320;2023-02-20T03:29:02;101330.0;;;12.6;84.0
54314;BME280;50746;52.490;13.320;2023-02-20T03:29:58;101330.0;;;12.5;85.0
54314;BME280;50746;52.490;13.320;2023-02-20T03:32:02;101320.0;;;12.6;86.4
54314;BME280;50746;52.490;13.320;2023-02-20T03:33:02;101320.0;;;12.7;84.6
54314;BME280;50746;52.490;13.320;2023-02-20T03:34:03;101310.0;;;12.6;85.0
54314;BME280;50746;52.490;13.320;2023-02-20T03:34:59;101310.0;;;13.1;81.3
54314;BME280;50746;52.490;13.320;2023-02-20T03:35:59;101310.0;;;13.4;79.9
54314;BME280;50746;52.490;13.320;2023-02-20T03:37:00;101310.0;;;13.1;80.8
54314;BME280;50746;52.490;13.320;2023-02-20T03:37:59;101310.0;;;12.9;80.4
54314;BME280;50746;52.490;13.320;2023-02-20T03:39:02;101320.0;;;12.2;86.9
54314;BME280;50746;52.490;13.320;2023-02-20T03:40:02;101310.0;;;12.4;86.3
54314;BME280;50746;52.490;13.320;2023-02-20T03:40:58;101310.0;;;12.7;85.1
54314;BME280;50746;52.490;13.320;2023-02-20T03:41:58;101300.0;;;12.4;86.9
54314;BME280;50746;52.490;13.320;2023-02-20T03:43:01;101310.0;;;12.5;87.0
54314;BME280;50746;52.490;13.320;2023-02-20T03:43:59;101310.0;;;12.8;85.2
54314;BME280;50746;52.490;13.320;2023-02-20T03:44:58;101310.0;;;13.0;82.9
54314;BME280;50746;52.490;13.320;2023-02-20T03:46:00;101300.0;;;12.9;82.9
54314;BME280;50746;52.490;13.320;2023-02-20T03:47:00;101310.0;;;12.6;84.0
54314;BME280;50746;52.490;13.320;2023-02-20T03:48:01;101310.0;;;12.8;83.1
54314;BME280;50746;52.490;13.320;2023-02-20T03:49:02;101300.0;;;12.9;82.4
54314;BME280;50746;52.490;13.320;2023-02-20T03:49:59;101310.0;;;12.6;85.7
54314;BME280;50746;52.490;13.320;2023-02-20T03:50:58;101310.0;;;12.7;86.1
54314;BME280;50746;52.490;13.320;2023-02-20T03:51:58;101310.0;;;12.6;87.1
54314;BME280;50746;52.490;13.320;2023-02-20T03:52:58;101310.0;;;12.2;88.1
54314;BME280;50746;52.490;13.320;2023-02-20T03:53:58;101310.0;;;12.0;92.0
54314;BME280;50746;52.490;13.320;2023-02-20T03:54:58;101310.0;;;12.6;88.1
54314;BME280;50746;52.490;13.320;2023-02-20T03:57:01;101320.0;;;12.3;89.3
54314;BME280;50746;52.490;13.320;2023-02-20T03:58:01;101310.0;;;12.8;87.5
54314;BME280;50746;52.490;13.320;2023-02-20T03:59:01;101310.0;;;12.4;89.5
54314;BME280;50746;52.490;13.320;2023-02-20T04:00:01;101320.0;;;12.6;89.0
54314;BME280;50746;52.490;13.320;2023-02-20T04:01:00;101320.0;;;12.8;86.9
54314;BME280;50746;52.490;13.320;2023-02-20T04:02:01;101320.0;;;12.5;89.7
54314;BME280;50746;52.490;13.320;2023-02-20T04:03:00;101320.0;;;12.8;89.2
54314;BME280;50746;52.490;13.320;2023-02-20T04:03:58;101320.0;;;12.9;86.6
54314;BME280;50746;52.490;13.320;2023-02-20T04:05:00;101320.0;;;12.6;89.4
54314;BME280;50746;52.490;13.320;2023-02-20T04:05:59;101320.0;;;12.9;87.0
54314;BME280;50746;52.490;13.320;2023-02-20T04:07:00;101320.0;;;12.7;89.1
54314;BME280;50746;52.490;13.320;2023-02-20T04:09:01;101320.0;;;13.0;87.4
54314;BME280;50746;52.490;13.320;2023-02-20T04:10:01;101320.0;;;12.8;86.3
54314;BME280;50746;52.490;13.320;2023-02-20T04:11:00;101310.0;;;12.5;89.3
54314;BME280;50746;52.490;13.320;2023-02-20T04:12:01;101320.0;;;12.6;89.7
54314;BME280;50746;52.490;13.320;2023-02-20T04:12:58;101310.0;;;12.7;90.0
54314;BME280;50746;52.490;13.320;2023-02-20T04:14:59;101300.0;;;13.0;88.1
54314;BME280;50746;52.490;13.320;2023-02-20T04:16:00;101300.0;;;13.4;85.1
54314;BME280;50746;52.490;13.320;2023-02-20T04:17:01;101300.0;;;13.2;85.0
54314;BME280;50746;52.490;13.320;2023-02-20T04:18:02;101300.0;;;13.4;83.8
54314;BME280;50746;52.490;13.320;2023-02-20T04:18:58;101300.0;;;13.2;85.1
54314;BME280;50746;52.490;13.320;2023-02-20T04:19:58;101300.0;;;12.7;89.5
54314;BME280;50746;52.490;13.320;2023-02-20T04:21:00;101290.0;;;12.9;90.5
54314;BME280;50746;52.490;13.320;2023-02-20T04:24:02;101300.0;;;12.7;90.9
54314;BME280;50746;52.490;13.320;2023-02-20T04:25:00;101290.0;;;12.8;90.0
54314;BME280;50746;52.490;13.320;2023-02-20T04:26:58;101300.0;;;12.5;92.7
54314;BME280;50746;52.490;13.320;2023-02-20T04:28:58;101290.0;;;12.8;91.8
54314;BME280;50746;52.490;13.320;2023-02-20T04:29:58;101290.0;;;12.4;92.8
54314;BME280;50746;52.490;13.320;2023-02-20T04:30:58;101290.0;;;12.6;93.7
54314;BME280;50746;52.490;13.320;2023-02-20T04:31:58;101280.0;;;13.0;91.2
54314;BME280;50746;52.490;13.320;2023-02-20T04:32:58;101280.0;;;13.1;91.4
54314;BME280;50746;52.490;13.320;2023-02-20T04:33:58;101270.0;;;13.4;87.7
54314;BME280;50746;52.490;13.320;2023-02-20T04:35:58;101260.0;;;13.5;84.7
54314;BME280;50746;52.490;13.320;2023-02-20T04:37:04;101260.0;;;13.4;85.8
54314;BME280;50746;52.490;13.320;2023-02-20T04:38:58;101260.0;;;13.5;86.1
54314;BME280;50746;52.490;13.320;2023-02-20T04:39:58;101270.0;;;13.4;84.9
54314;BME280;50746;52.490;13.320;2023-02-20T04:40:58;101260.0;;;13.6;84.8
54314;BME280;50746;52.490;13.320;2023-02-20T04:41:58;101260.0;;;14.3;81.0
54314;BME280;50746;52.490;13.320;2023-02-20T04:42:58;101260.0;;;13.8;81.1
54314;BME280;50746;52.490;13.320;2023-02-20T04:43:58;101260.0;;;13.9;82.5
54314;BME280;50746;52.490;13.320;2023-02-20T04:44:58;101260.0;;;14.2;79.3
54314;BME280;50746;52.490;13.320;2023-02-20T04:45:59;101250.0;;;14.1;78.3
54314;BME280;50746;52.490;13.320;2023-02-20T04:47:58;101240.0;;;14.5;76.4
54314;BME280;50746;52.490;13.320;2023-02-20T04:48:58;101250.0;;;14.0;79.9
54314;BME280;50746;52.490;13.320;2023-02-20T04:49:58;101250.0;;;14.3;80.2
54314;BME280;50746;52.490;13.320;2023-02-20T04:51:58;101250.0;;;14.4;78.3
54314;BME280;50746;52.490;13.320;2023-02-20T04:52:59;101250.0;;;13.7;81.7
54314;BME280;50746;52.490;13.320;2023-02-20T04:53:58;101250.0;;;14.2;81.6
54314;BME280;50746;52.490;13.320;2023-02-20T04:54:58;101250.0;;;13.9;81.5
54314;BME280;50746;52.490;13.320;2023-02-20T04:55:58;101260.0;;;13.4;84.8
54314;BME280;50746;52.490;13.320;2023-02-20T04:56:58;101260.0;;;13.6;86.5
54314;BME280;50746;52.490;13.320;2023-02-20T04:57:58;101250.0;;;13.8;85.0
54314;BME280;50746;52.490;13.320;2023-02-20T04:58:58;101250.0;;;13.6;85.0
54314;BME280;50746;52.490;13.320;2023-02-20T04:59:58;101240.0;;;13.4;86.8
54314;BME280;50746;52.490;13.320;2023-02-20T05:00:58;101230.0;;;13.7;85.6
54314;BME280;50746;52.490;13.320;2023-02-20T05:01:58;101220.0;;;13.8;83.9
54314;BME280;50746;52.490;13.320;2023-02-20T05:02:58;101230.0;;;13.5;85.7
54314;BME280;50746;52.490;13.320;2023-02-20T05:03:58;101220.0;;;13.6;85.5
54314;BME280;50746;52.490;13.320;2023-02-20T05:04:58;101220.0;;;13.7;84.8
54314;BME280;50746;52.490;13.320;2023-02-20T05:05:58;101210.0;;;14.2;83.5
54314;BME280;50746;52.490;13.320;2023-02-20T05:08:58;101200.0;;;14.3;80.7
54314;BME280;50746;52.490;13.320;2023-02-20T05:09:58;101200.0;;;14.6;78.9
54314;BME280;50746;52.490;13.320;2023-02-20T05:10:58;101200.0;;;14.1;80.3
54314;BME280;50746;52.490;13.320;2023-02-20T05:11:58;101190.0;;;14.2;81.3
54314;BME280;50746;52.490;13.320;2023-02-20T05:12:58;101200.0;;;13.9;82.8
54314;BME280;50746;52.490;13.320;2023-02-20T05:13:58;101200.0;;;14.2;81.6
54314;BME280;50746;52.490;13.320;2023-02-20T05:14:58;101180.0;;;14.1;81.1
54314;BME280;50746;52.490;13.320;2023-02-20T05:15:58;101180.0;;;14.2;82.4
54314;BME280;50746;52.490;13.320;2023-02-20T05:16:58;101190.0;;;14.4;80.7
54314;BME280;50746;52.490;13.320;2023-02-20T05:17:58;101180.0;;;14.6;80.5
54314;BME280;50746;52.490;13.320;2023-02-20T05:18:58;101180.0;;;14.1;81.3
54314;BME280;50746;52.490;13.320;2023-02-20T05:19:58;101190.0;;;13.9;83.4
54314;BME280;50746;52.490;13.320;2023-02-20T05:20:58;101180.0;;;13.8;86.3
54314;BME280;50746;52.490;13.320;2023-02-20T05:21:58;101180.0;;;14.2;85.0
54314;BME280;50746;52.490;13.320;2023-02-20T05:22:58;101180.0;;;13.7;87.3
54314;BME280;50746;52.490;13.320;2023-02-20T05:23:58;101190.0;;;13.5;89.7
54314;BME280;50746;52.490;13.320;2023-02-20T05:24:58;101190.0;;;13.8;90.8
54314;BME280;50746;52.490;13.320;2023-02-20T05:26:58;101180.0;;;13.9;88.6
54314;BME280;50746;52.490;13.320;2023-02-20T05:27:58;101180.0;;;14.0;87.6
54314;BME280;50746;52.490;13.320;2023-02-20T05:28:58;101180.0;;;13.9;88.3
54314;BME280;50746;52.490;13.320;2023-02-20T05:29:59;101180.0;;;13.8;89.7
54314;BME280;50746;52.490;13.320;2023-02-20T05:30:58;101180.0;;;14.0;89.3
54314;BME280;50746;52.490;13.320;2023-02-20T05:31:58;101180.0;;;13.6;90.4
54314;BME280;50746;52.490;13.320;2023-02-20T05:34:58;101180.0;;;13.8;90.6
54314;BME280;50746;52.490;13.320;2023-02-20T05:35:58;101180.0;;;13.5;91.7
54314;BME280;50746;52.490;13.320;2023-02-20T05:37:58;101180.0;;;13.6;93.1
54314;BME280;50746;52.490;13.320;2023-02-20T05:38:58;101180.0;;;13.7;91.9
54314;BME280;50746;52.490;13.320;2023-02-20T05:40:58;101180.0;;;13.5;94.2
54314;BME280;50746;52.490;13.320;2023-02-20T05:41:58;101180.0;;;13.8;94.1
54314;BME280;50746;52.490;13.320;2023-02-20T05:43:58;101180.0;;;13.4;94.9
54314;BME280;50746;52.490;13.320;2023-02-20T05:44:58;101170.0;;;13.7;94.1
54314;BME280;50746;52.490;13.320;2023-02-20T05:45:58;101180.0;;;13.8;93.4
54314;BME280;50746;52.490;13.320;2023-02-20T05:47:58;101170.0;;;13.9;91.9
54314;BME280;50746;52.490;13.320;2023-02-20T05:48:58;101170.0;;;13.6;93.7
54314;BME280;50746;52.490;13.320;2023-02-20T05:50:58;101170.0;;;13.7;94.3
54314;BME280;50746;52.490;13.320;2023-02-20T05:51:58;101170.0;;;13.9;92.7
54314;BME280;50746;52.490;13.320;2023-02-20T05:52:58;101160.0;;;13.6;93.1
54314;BME280;50746;52.490;13.320;2023-02-20T05:54:58;101160.0;;;13.7;94.6
54314;BME280;50746;52.490;13.320;2023-02-20T05:55:58;101160.0;;;13.9;92.7
54314;BME280;50746;52.490;13.320;2023-02-20T05:57:58;101160.0;;;13.6;94.6
54314;BME280;50746;52.490;13.320;2023-02-20T05:58:58;101160.0;;;13.8;95.0
54314;BME280;50746;52.490;13.320;2023-02-20T05:59:58;101160.0;;;13.7;93.7
54314;BME280;50746;52.490;13.320;2023-02-20T06:00:58;101160.0;;;13.8;94.6
54314;BME280;50746;52.490;13.320;2023-02-20T06:02:58;101150.0;;;13.6;95.9
54314;BME280;50746;52.490;13.320;2023-02-20T06:03:58;101150.0;;;13.9;94.6
54314;BME280;50746;52.490;13.320;2023-02-20T06:04:58;101150.0;;;13.8;94.9
54314;BME280;50746;52.490;13.320;2023-02-20T06:05:58;101140.0;;;13.5;97.0
54314;BME280;50746;52.490;13.320;2023-02-20T06:06:58;101130.0;;;13.8;95.4
54314;BME280;50746;52.490;13.320;2023-02-20T06:07:58;101130.0;;;13.9;94.7
54314;BME280;50746;52.490;13.320;2023-02-20T06:09:58;101130.0;;;13.6;95.6
54314;BME280;50746;52.490;13.320;2023-02-20T06:10:58;101120.0;;;14.3;92.0
54314;BME280;50746;52.490;13.320;2023-02-20T06:11:58;101120.0;;;14.4;90.4
54314;BME280;50746;52.490;13.320;2023-02-20T06:13:58;101120.0;;;13.9;93.0
54314;BME280;50746;52.490;13.320;2023-02-20T06:14:58;101120.0;;;13.8;92.2
54314;BME280;50746;52.490;13.320;2023-02-20T06:15:58;101110.0;;;13.7;94.8
54314;BME280;50746;52.490;13.320;2023-02-20T06:16:58;101110.0;;;13.6;95.4
54314;BME280;50746;52.490;13.320;2023-02-20T06:17:58;101110.0;;;13.9;94.4
54314;BME280;50746;52.490;13.320;2023-02-20T06:18:58;101110.0;;;13.8;94.6
54314;BME280;50746;52.490;13.320;2023-02-20T06:19:58;101110.0;;;13.9;93.9
54314;BME280;50746;52.490;13.320;2023-02-20T06:20:58;101110.0;;;13.7;93.7
54314;BME280;50746;52.490;13.320;2023-02-20T06:21:58;101100.0;;;13.8;94.1
54314;BME280;50746;52.490;13.320;2023-02-20T06:23:58;101100.0;;;14.0;92.5
54314;BME280;50746;52.490;13.320;2023-02-20T06:24:58;101110.0;;;13.9;93.5
54314;BME280;50746;52.490;13.320;2023-02-20T06:25:58;101100.0;;;13.7;93.1
54314;BME280;50746;52.490;13.320;2023-02-20T06:26:58;101100.0;;;13.4;94.3
54314;BME280;50746;52.490;13.320;2023-02-20T06:27:58;101110.0;;;13.7;96.1
54314;BME280;50746;52.490;13.320;2023-02-20T06:28:58;101110.0;;;13.5;95.7
54314;BME280;50746;52.490;13.320;2023-02-20T06:29:58;101110.0;;;13.9;94.1
54314;BME280;50746;52.490;13.320;2023-02-20T06:30:58;101110.0;;;13.6;95.8
54314;BME280;50746;52.490;13.320;2023-02-20T06:31:58;101110.0;;;13.9;93.8
54314;BME280;50746;52.490;13.320;2023-02-20T06:32:58;101110.0;;;14.0;93.1
54314;BME280;50746;52.490;13.320;2023-02-20T06:33:58;101110.0;;;13.4;94.8
54314;BME280;50746;52.490;13.320;2023-02-20T06:34:58;101100.0;;;13.6;96.9
54314;BME280;50746;52.490;13.320;2023-02-20T06:35:58;101100.0;;;13.4;96.7
54314;BME280;50746;52.490;13.320;2023-02-20T06:36:58;101090.0;;;13.6;95.9
54314;BME280;50746;52.490;13.320;2023-02-20T06:37:59;101090.0;;;13.9;97.0
54314;BME280;50746;52.490;13.320;2023-02-20T06:38:58;101090.0;;;13.8;94.1
54314;BME280;50746;52.490;13.320;2023-02-20T06:39:58;101100.0;;;13.6;94.5
54314;BME280;50746;52.490;13.320;2023-02-20T06:40:58;101090.0;;;13.5;96.7
54314;BME280;50746;52.490;13.320;2023-02-20T06:41:58;101080.0;;;13.8;95.3
54314;BME280;50746;52.490;13.320;2023-02-20T06:43:58;101080.0;;;13.6;95.7
54314;BME280;50746;52.490;13.320;2023-02-20T06:44:58;101090.0;;;13.8;94.2
54314;BME280;50746;52.490;13.320;2023-02-20T06:47:58;101120.0;;;13.3;96.6
54314;BME280;50746;52.490;13.320;2023-02-20T06:48:58;101110.0;;;13.4;98.2